sensor_id;sensor_type;location;lat;lon;timestamp;temperature;humidity
20068;DHT22;10194;50.824;7.134;2023-06-10T00:02:15;18.00;99.90
20068;DHT22;10194;50.824;7.134;2023-06-10T00:04:42;17.90;99.90
20068;DHT22;10194;50.824;7.134;2023-06-10T00:07:08;17.80;99.90
20068;DHT22;10194;50.824;7.134;2023-06-10T00:09:36;17.70;99.90
20068;DHT22;10194;50.824;7.134;2023-06-10T00:12:04;17.70;99.90
20068;DHT22;10194;50.824;7.134;2023-06-10T00:14:32;17.60;99.90
20068;DHT22;10194;50.824;7.134;2023-06-10T00:16:58;17.50;99.90
20068;DHT22;10194;50.824;7.134;2023-06-10T00:19:24;17.40;99.90
20068;DHT22;10194;50.824;7.134;2023-06-10T00:21:56;17.40;99.90
20068;DHT22;10194;50.824;7.134;2023-06-10T00:24:22;17.30;99.90
20068;DHT22;10194;50.824;7.134;2023-06-10T00:26:48;17.20;99.90
20068;DHT22;10194;50.824;7.134;2023-06-10T00:29:14;17.20;99.90
20068;DHT22;10194;50.824;7.134;2023-06-10T00:31:40;17.10;99.90
20068;DHT22;10194;50.824;7.134;2023-06-10T00:34:07;17.10;99.90
20068;DHT22;10194;50.824;7.134;2023-06-10T00:36:33;17.00;99.90
20068;DHT22;10194;50.824;7.134;2023-06-10T00:38:59;17.00;99.90
20068;DHT22;10194;50.824;7.134;2023-06-10T00:41:25;16.90;99.90
20068;DHT22;10194;50.824;7.134;2023-06-10T00:43:52;16.90;99.90
20068;DHT22;10194;50.824;7.134;2023-06-10T00:46:18;16.80;99.90
20068;DHT22;10194;50.824;7.134;2023-06-10T00:48:45;16.80;99.90
20068;DHT22;10194;50.824;7.134;2023-06-10T00:51:11;16.70;99.90
20068;DHT22;10194;50.824;7.134;2023-06-10T00:53:39;16.60;99.90
20068;DHT22;10194;50.824;7.134;2023-06-10T00:56:06;16.60;99.90
20068;DHT22;10194;50.824;7.134;2023-06-10T00:58:32;16.60;99.90
20068;DHT22;10194;50.824;7.134;2023-06-10T01:00:58;16.60;99.90
20068;DHT22;10194;50.824;7.134;2023-06-10T01:03:24;16.50;99.90
20068;DHT22;10194;50.824;7.134;2023-06-10T01:06:06;16.50;99.90
20068;DHT22;10194;50.824;7.134;2023-06-10T01:08:58;16.50;99.90
20068;DHT22;10194;50.824;7.134;2023-06-10T01:11:35;16.50;99.90
20068;DHT22;10194;50.824;7.134;2023-06-10T01:14:05;16.40;99.90
20068;DHT22;10194;50.824;7.134;2023-06-10T01:16:33;16.30;99.90
20068;DHT22;10194;50.824;7.134;2023-06-10T01:19:01;16.40;99.90
20068;DHT22;10194;50.824;7.134;2023-06-10T01:21:27;16.30;99.90
20068;DHT22;10194;50.824;7.134;2023-06-10T01:23:54;16.30;99.90
20068;DHT22;10194;50.824;7.134;2023-06-10T01:26:24;16.20;99.90
20068;DHT22;10194;50.824;7.134;2023-06-10T01:29:07;16.20;99.90
20068;DHT22;10194;50.824;7.134;2023-06-10T01:31:50;16.20;99.90
20068;DHT22;10194;50.824;7.134;2023-06-10T01:34:21;16.10;99.90
20068;DHT22;10194;50.824;7.134;2023-06-10T01:36:49;16.00;99.90
20068;DHT22;10194;50.824;7.134;2023-06-10T01:39:17;16.00;99.90
20068;DHT22;10194;50.824;7.134;2023-06-10T01:41:44;15.90;99.90
20068;DHT22;10194;50.824;7.134;2023-06-10T01:44:10;15.90;99.90
20068;DHT22;10194;50.824;7.134;2023-06-10T01:46:37;15.90;99.90
20068;DHT22;10194;50.824;7.134;2023-06-10T01:49:03;15.80;99.90
20068;DHT22;10194;50.824;7.134;2023-06-10T01:51:28;15.80;99.90
20068;DHT22;10194;50.824;7.134;2023-06-10T01:53:56;15.70;99.90
20068;DHT22;10194;50.824;7.134;2023-06-10T01:56:22;15.70;99.90
20068;DHT22;10194;50.824;7.134;2023-06-10T01:58:48;15.60;99.90
20068;DHT22;10194;50.824;7.134;2023-06-10T02:01:14;15.60;99.90
20068;DHT22;10194;50.824;7.134;2023-06-10T02:03:40;15.60;99.90
20068;DHT22;10194;50.824;7.134;2023-06-10T02:06:06;15.60;99.90
20068;DHT22;10194;50.824;7.134;2023-06-10T02:08:32;15.50;99.90
20068;DHT22;10194;50.824;7.134;2023-06-10T02:10:57;15.50;99.90
20068;DHT22;10194;50.824;7.134;2023-06-10T02:13:23;15.40;99.90
20068;DHT22;10194;50.824;7.134;2023-06-10T02:15:49;15.40;99.90
20068;DHT22;10194;50.824;7.134;2023-06-10T02:18:15;15.40;99.90
20068;DHT22;10194;50.824;7.134;2023-06-10T02:20:41;15.40;99.90
20068;DHT22;10194;50.824;7.134;2023-06-10T02:23:06;15.30;99.90
20068;DHT22;10194;50.824;7.134;2023-06-10T02:25:32;15.30;99.90
20068;DHT22;10194;50.824;7.134;2023-06-10T02:27:58;15.20;99.90
20068;DHT22;10194;50.824;7.134;2023-06-10T02:30:23;15.20;99.90
20068;DHT22;10194;50.824;7.134;2023-06-10T02:32:49;15.20;99.90
20068;DHT22;10194;50.824;7.134;2023-06-10T02:35:16;15.10;99.90
20068;DHT22;10194;50.824;7.134;2023-06-10T02:37:43;15.10;99.90
20068;DHT22;10194;50.824;7.134;2023-06-10T02:40:09;15.00;99.90
20068;DHT22;10194;50.824;7.134;2023-06-10T02:42:36;15.00;99.90
20068;DHT22;10194;50.824;7.134;2023-06-10T02:45:02;15.00;99.90
20068;DHT22;10194;50.824;7.134;2023-06-10T02:47:28;15.00;99.90
20068;DHT22;10194;50.824;7.134;2023-06-10T02:49:54;15.00;99.90
20068;DHT22;10194;50.824;7.134;2023-06-10T02:52:20;15.00;99.90
20068;DHT22;10194;50.824;7.134;2023-06-10T02:54:46;14.90;99.90
20068;DHT22;10194;50.824;7.134;2023-06-10T02:57:12;14.90;99.90
20068;DHT22;10194;50.824;7.134;2023-06-10T02:59:39;14.90;99.90
20068;DHT22;10194;50.824;7.134;2023-06-10T03:02:06;14.80;99.90
20068;DHT22;10194;50.824;7.134;2023-06-10T03:04:32;14.80;99.90
20068;DHT22;10194;50.824;7.134;2023-06-10T03:06:58;14.80;99.90
20068;DHT22;10194;50.824;7.134;2023-06-10T03:09:25;14.70;99.90
20068;DHT22;10194;50.824;7.134;2023-06-10T03:11:51;14.70;99.90
20068;DHT22;10194;50.824;7.134;2023-06-10T03:14:17;14.70;99.90
20068;DHT22;10194;50.824;7.134;2023-06-10T03:16:43;14.70;99.90
20068;DHT22;10194;50.824;7.134;2023-06-10T03:19:09;14.70;99.90
20068;DHT22;10194;50.824;7.134;2023-06-10T03:21:35;14.60;99.90
20068;DHT22;10194;50.824;7.134;2023-06-10T03:24:03;14.60;99.90
20068;DHT22;10194;50.824;7.134;2023-06-10T03:26:29;14.60;99.90
20068;DHT22;10194;50.824;7.134;2023-06-10T03:28:55;14.60;99.90
20068;DHT22;10194;50.824;7.134;2023-06-10T03:31:20;14.60;99.90
20068;DHT22;10194;50.824;7.134;2023-06-10T03:33:46;14.50;99.90
20068;DHT22;10194;50.824;7.134;2023-06-10T03:36:12;14.60;99.90
20068;DHT22;10194;50.824;7.134;2023-06-10T03:38:38;14.50;99.90
20068;DHT22;10194;50.824;7.134;2023-06-10T03:41:03;14.50;99.90
20068;DHT22;10194;50.824;7.134;2023-06-10T03:43:29;14.60;99.90
20068;DHT22;10194;50.824;7.134;2023-06-10T03:45:56;14.60;99.90
20068;DHT22;10194;50.824;7.134;2023-06-10T03:48:22;14.60;99.90
20068;DHT22;10194;50.824;7.134;2023-06-10T03:50:48;14.60;99.90
20068;DHT22;10194;50.824;7.134;2023-06-10T03:53:16;14.70;99.90
20068;DHT22;10194;50.824;7.134;2023-06-10T03:55:42;14.70;99.90
20068;DHT22;10194;50.824;7.134;2023-06-10T03:58:08;14.70;99.90
20068;DHT22;10194;50.824;7.134;2023-06-10T04:00:34;14.70;99.90
20068;DHT22;10194;50.824;7.134;2023-06-10T04:03:07;14.70;99.90
20068;DHT22;10194;50.824;7.134;2023-06-10T04:05:34;14.70;99.90
20068;DHT22;10194;50.824;7.134;2023-06-10T04:08:00;14.70;99.90
20068;DHT22;10194;50.824;7.134;2023-06-10T04:10:27;14.70;99.90
20068;DHT22;10194;50.824;7.134;2023-06-10T04:12:52;14.80;99.90
20068;DHT22;10194;50.824;7.134;2023-06-10T04:15:19;14.80;99.90
20068;DHT22;10194;50.824;7.134;2023-06-10T04:17:45;14.80;99.90
20068;DHT22;10194;50.824;7.134;2023-06-10T04:20:11;14.90;99.90
20068;DHT22;10194;50.824;7.134;2023-06-10T04:22:36;14.90;99.90
20068;DHT22;10194;50.824;7.134;2023-06-10T04:25:02;14.90;99.90
20068;DHT22;10194;50.824;7.134;2023-06-10T04:27:29;15.00;99.90
20068;DHT22;10194;50.824;7.134;2023-06-10T04:29:56;15.00;99.90
20068;DHT22;10194;50.824;7.134;2023-06-10T04:32:21;15.00;99.90
20068;DHT22;10194;50.824;7.134;2023-06-10T04:34:48;15.10;99.90
20068;DHT22;10194;50.824;7.134;2023-06-10T04:37:14;15.20;99.90
20068;DHT22;10194;50.824;7.134;2023-06-10T04:39:40;15.20;99.90
20068;DHT22;10194;50.824;7.134;2023-06-10T04:42:06;15.30;99.90
20068;DHT22;10194;50.824;7.134;2023-06-10T04:44:32;15.40;99.90
20068;DHT22;10194;50.824;7.134;2023-06-10T04:46:58;15.50;99.90
20068;DHT22;10194;50.824;7.134;2023-06-10T04:49:24;15.60;99.90
20068;DHT22;10194;50.824;7.134;2023-06-10T04:51:49;15.70;99.90
20068;DHT22;10194;50.824;7.134;2023-06-10T04:54:16;15.70;99.90
20068;DHT22;10194;50.824;7.134;2023-06-10T04:56:42;15.80;99.90
20068;DHT22;10194;50.824;7.134;2023-06-10T04:59:08;15.90;99.90
20068;DHT22;10194;50.824;7.134;2023-06-10T05:01:33;16.00;99.90
20068;DHT22;10194;50.824;7.134;2023-06-10T05:03:59;16.10;99.90
20068;DHT22;10194;50.824;7.134;2023-06-10T05:06:25;16.30;99.90
20068;DHT22;10194;50.824;7.134;2023-06-10T05:08:51;16.30;99.90
20068;DHT22;10194;50.824;7.134;2023-06-10T05:11:16;16.40;99.90
20068;DHT22;10194;50.824;7.134;2023-06-10T05:13:42;16.50;99.90
20068;DHT22;10194;50.824;7.134;2023-06-10T05:16:09;16.60;99.90
20068;DHT22;10194;50.824;7.134;2023-06-10T05:18:35;16.70;99.90
20068;DHT22;10194;50.824;7.134;2023-06-10T05:21:01;16.80;99.90
20068;DHT22;10194;50.824;7.134;2023-06-10T05:23:27;16.90;99.90
20068;DHT22;10194;50.824;7.134;2023-06-10T05:25:54;17.00;99.90
20068;DHT22;10194;50.824;7.134;2023-06-10T05:28:19;17.20;99.90
20068;DHT22;10194;50.824;7.134;2023-06-10T05:30:46;17.30;99.90
20068;DHT22;10194;50.824;7.134;2023-06-10T05:33:11;17.30;99.90
20068;DHT22;10194;50.824;7.134;2023-06-10T05:35:37;17.50;99.90
20068;DHT22;10194;50.824;7.134;2023-06-10T05:38:03;17.60;99.90
20068;DHT22;10194;50.824;7.134;2023-06-10T05:40:29;17.70;99.90
20068;DHT22;10194;50.824;7.134;2023-06-10T05:42:55;17.80;99.90
20068;DHT22;10194;50.824;7.134;2023-06-10T05:45:20;18.10;99.90
20068;DHT22;10194;50.824;7.134;2023-06-10T05:47:46;18.30;99.90
20068;DHT22;10194;50.824;7.134;2023-06-10T05:50:12;18.50;99.90
20068;DHT22;10194;50.824;7.134;2023-06-10T05:52:38;18.70;99.90
20068;DHT22;10194;50.824;7.134;2023-06-10T05:55:06;18.90;99.90
20068;DHT22;10194;50.824;7.134;2023-06-10T05:57:32;19.00;99.90
20068;DHT22;10194;50.824;7.134;2023-06-10T05:59:57;19.20;99.90
20068;DHT22;10194;50.824;7.134;2023-06-10T06:02:24;19.30;99.90
20068;DHT22;10194;50.824;7.134;2023-06-10T06:04:49;19.40;99.90
20068;DHT22;10194;50.824;7.134;2023-06-10T06:07:15;19.40;99.90
20068;DHT22;10194;50.824;7.134;2023-06-10T06:09:41;19.40;99.90
20068;DHT22;10194;50.824;7.134;2023-06-10T06:12:07;19.50;99.90
20068;DHT22;10194;50.824;7.134;2023-06-10T06:14:37;19.60;99.90
20068;DHT22;10194;50.824;7.134;2023-06-10T06:17:05;19.80;99.90
20068;DHT22;10194;50.824;7.134;2023-06-10T06:19:31;20.00;99.90
20068;DHT22;10194;50.824;7.134;2023-06-10T06:21:57;20.20;99.90
20068;DHT22;10194;50.824;7.134;2023-06-10T06:24:23;20.30;99.90
20068;DHT22;10194;50.824;7.134;2023-06-10T06:26:48;20.40;99.90
20068;DHT22;10194;50.824;7.134;2023-06-10T06:29:14;20.50;99.90
20068;DHT22;10194;50.824;7.134;2023-06-10T06:31:40;20.50;99.90
20068;DHT22;10194;50.824;7.134;2023-06-10T06:34:06;20.60;99.90
20068;DHT22;10194;50.824;7.134;2023-06-10T06:36:31;20.90;99.90
20068;DHT22;10194;50.824;7.134;2023-06-10T06:38:57;21.40;99.90
20068;DHT22;10194;50.824;7.134;2023-06-10T06:41:26;22.00;99.90
20068;DHT22;10194;50.824;7.134;2023-06-10T06:43:53;22.30;99.90
20068;DHT22;10194;50.824;7.134;2023-06-10T06:46:19;22.40;99.90
20068;DHT22;10194;50.824;7.134;2023-06-10T06:48:46;22.60;99.90
20068;DHT22;10194;50.824;7.134;2023-06-10T06:51:12;22.60;99.90
20068;DHT22;10194;50.824;7.134;2023-06-10T06:53:39;22.50;99.90
20068;DHT22;10194;50.824;7.134;2023-06-10T06:56:10;22.80;99.90
20068;DHT22;10194;50.824;7.134;2023-06-10T06:58:37;23.10;99.90
20068;DHT22;10194;50.824;7.134;2023-06-10T07:01:03;23.30;99.90
20068;DHT22;10194;50.824;7.134;2023-06-10T07:03:28;23.90;99.90
20068;DHT22;10194;50.824;7.134;2023-06-10T07:05:54;24.70;99.90
20068;DHT22;10194;50.824;7.134;2023-06-10T07:08:20;25.40;97.40
20068;DHT22;10194;50.824;7.134;2023-06-10T07:10:46;25.80;96.40
20068;DHT22;10194;50.824;7.134;2023-06-10T07:13:11;26.20;95.70
20068;DHT22;10194;50.824;7.134;2023-06-10T07:15:38;26.80;94.50
20068;DHT22;10194;50.824;7.134;2023-06-10T07:18:04;26.50;91.50
20068;DHT22;10194;50.824;7.134;2023-06-10T07:20:30;26.70;94.30
20068;DHT22;10194;50.824;7.134;2023-06-10T07:22:56;27.40;94.40
20068;DHT22;10194;50.824;7.134;2023-06-10T07:25:22;27.80;91.10
20068;DHT22;10194;50.824;7.134;2023-06-10T07:27:47;28.00;88.50
20068;DHT22;10194;50.824;7.134;2023-06-10T07:30:13;28.10;90.00
20068;DHT22;10194;50.824;7.134;2023-06-10T07:32:39;28.40;84.80
20068;DHT22;10194;50.824;7.134;2023-06-10T07:35:09;27.80;82.20
20068;DHT22;10194;50.824;7.134;2023-06-10T07:37:38;27.40;85.40
20068;DHT22;10194;50.824;7.134;2023-06-10T07:40:04;28.00;88.90
20068;DHT22;10194;50.824;7.134;2023-06-10T07:42:33;28.50;81.30
20068;DHT22;10194;50.824;7.134;2023-06-10T07:45:00;28.20;83.90
20068;DHT22;10194;50.824;7.134;2023-06-10T07:47:25;28.30;83.30
20068;DHT22;10194;50.824;7.134;2023-06-10T07:49:51;28.30;82.90
20068;DHT22;10194;50.824;7.134;2023-06-10T07:52:17;28.40;85.00
20068;DHT22;10194;50.824;7.134;2023-06-10T07:54:43;28.70;83.10
20068;DHT22;10194;50.824;7.134;2023-06-10T07:57:08;28.40;81.80
20068;DHT22;10194;50.824;7.134;2023-06-10T07:59:35;28.00;82.90
20068;DHT22;10194;50.824;7.134;2023-06-10T08:02:00;26.80;84.90
20068;DHT22;10194;50.824;7.134;2023-06-10T08:04:26;26.80;87.10
20068;DHT22;10194;50.824;7.134;2023-06-10T08:06:52;27.00;87.50
20068;DHT22;10194;50.824;7.134;2023-06-10T08:09:18;27.60;85.70
20068;DHT22;10194;50.824;7.134;2023-06-10T08:11:48;27.80;89.10
20068;DHT22;10194;50.824;7.134;2023-06-10T08:14:15;27.90;88.60
20068;DHT22;10194;50.824;7.134;2023-06-10T08:16:42;27.50;83.90
20068;DHT22;10194;50.824;7.134;2023-06-10T08:19:08;27.40;85.20
20068;DHT22;10194;50.824;7.134;2023-06-10T08:21:35;27.50;84.10
20068;DHT22;10194;50.824;7.134;2023-06-10T08:24:03;27.90;82.60
20068;DHT22;10194;50.824;7.134;2023-06-10T08:26:28;28.10;85.90
20068;DHT22;10194;50.824;7.134;2023-06-10T08:28:54;28.00;82.80
20068;DHT22;10194;50.824;7.134;2023-06-10T08:31:21;28.40;85.60
20068;DHT22;10194;50.824;7.134;2023-06-10T08:33:46;28.30;80.90
20068;DHT22;10194;50.824;7.134;2023-06-10T08:36:12;28.50;83.60
20068;DHT22;10194;50.824;7.134;2023-06-10T08:38:38;28.60;81.20
20068;DHT22;10194;50.824;7.134;2023-06-10T08:41:05;28.90;81.80
20068;DHT22;10194;50.824;7.134;2023-06-10T08:46:33;27.90;79.70
20068;DHT22;10194;50.824;7.134;2023-06-10T08:49:03;28.10;88.50
20068;DHT22;10194;50.824;7.134;2023-06-10T08:51:32;28.60;81.50
20068;DHT22;10194;50.824;7.134;2023-06-10T08:54:20;28.70;80.30
20068;DHT22;10194;50.824;7.134;2023-06-10T08:56:49;28.70;82.30
20068;DHT22;10194;50.824;7.134;2023-06-10T08:59:16;28.80;80.70
20068;DHT22;10194;50.824;7.134;2023-06-10T09:01:43;29.10;80.00
20068;DHT22;10194;50.824;7.134;2023-06-10T09:04:10;29.10;75.90
20068;DHT22;10194;50.824;7.134;2023-06-10T09:06:36;28.70;79.40
20068;DHT22;10194;50.824;7.134;2023-06-10T09:09:05;28.70;82.30
20068;DHT22;10194;50.824;7.134;2023-06-10T09:11:31;29.10;84.50
20068;DHT22;10194;50.824;7.134;2023-06-10T09:13:57;28.70;78.90
20068;DHT22;10194;50.824;7.134;2023-06-10T09:16:25;28.40;80.80
20068;DHT22;10194;50.824;7.134;2023-06-10T09:18:51;27.90;78.50
20068;DHT22;10194;50.824;7.134;2023-06-10T09:21:24;28.30;85.40
20068;DHT22;10194;50.824;7.134;2023-06-10T09:23:50;28.50;81.00
20068;DHT22;10194;50.824;7.134;2023-06-10T09:26:17;28.40;82.00
20068;DHT22;10194;50.824;7.134;2023-06-10T09:29:04;28.40;79.00
20068;DHT22;10194;50.824;7.134;2023-06-10T09:31:38;29.00;77.40
20068;DHT22;10194;50.824;7.134;2023-06-10T09:34:09;29.20;78.10
20068;DHT22;10194;50.824;7.134;2023-06-10T09:36:37;29.10;77.10
20068;DHT22;10194;50.824;7.134;2023-06-10T09:39:03;29.50;80.40
20068;DHT22;10194;50.824;7.134;2023-06-10T09:41:39;29.70;77.60
20068;DHT22;10194;50.824;7.134;2023-06-10T09:44:16;29.60;75.50
20068;DHT22;10194;50.824;7.134;2023-06-10T09:46:46;29.50;74.40
20068;DHT22;10194;50.824;7.134;2023-06-10T09:49:13;29.50;74.20
20068;DHT22;10194;50.824;7.134;2023-06-10T09:51:52;29.70;74.60
20068;DHT22;10194;50.824;7.134;2023-06-10T09:54:22;29.90;75.50
20068;DHT22;10194;50.824;7.134;2023-06-10T09:56:49;30.20;74.80
20068;DHT22;10194;50.824;7.134;2023-06-10T09:59:28;29.40;72.70
20068;DHT22;10194;50.824;7.134;2023-06-10T10:01:56;28.80;71.00
20068;DHT22;10194;50.824;7.134;2023-06-10T10:04:25;29.30;73.90
20068;DHT22;10194;50.824;7.134;2023-06-10T10:06:52;29.00;71.50
20068;DHT22;10194;50.824;7.134;2023-06-10T10:09:18;29.40;72.60
20068;DHT22;10194;50.824;7.134;2023-06-10T10:11:44;29.90;69.40
20068;DHT22;10194;50.824;7.134;2023-06-10T10:14:12;29.80;67.70
20068;DHT22;10194;50.824;7.134;2023-06-10T10:16:41;29.60;68.50
20068;DHT22;10194;50.824;7.134;2023-06-10T10:19:20;29.80;73.70
20068;DHT22;10194;50.824;7.134;2023-06-10T10:22:01;30.20;71.50
20068;DHT22;10194;50.824;7.134;2023-06-10T10:24:50;30.40;69.50
20068;DHT22;10194;50.824;7.134;2023-06-10T10:27:21;30.00;67.10
20068;DHT22;10194;50.824;7.134;2023-06-10T10:29:54;29.90;74.60
20068;DHT22;10194;50.824;7.134;2023-06-10T10:32:32;29.30;62.80
20068;DHT22;10194;50.824;7.134;2023-06-10T10:35:16;29.30;65.40
20068;DHT22;10194;50.824;7.134;2023-06-10T10:37:43;29.30;64.00
20068;DHT22;10194;50.824;7.134;2023-06-10T10:40:10;29.60;64.70
20068;DHT22;10194;50.824;7.134;2023-06-10T10:42:37;29.80;65.50
20068;DHT22;10194;50.824;7.134;2023-06-10T10:45:04;29.70;65.60
20068;DHT22;10194;50.824;7.134;2023-06-10T10:47:31;30.00;66.40
20068;DHT22;10194;50.824;7.134;2023-06-10T10:49:58;30.50;67.80
20068;DHT22;10194;50.824;7.134;2023-06-10T10:52:26;30.10;61.90
20068;DHT22;10194;50.824;7.134;2023-06-10T10:54:53;29.10;61.70
20068;DHT22;10194;50.824;7.134;2023-06-10T10:57:21;29.10;63.00
20068;DHT22;10194;50.824;7.134;2023-06-10T11:02:42;30.30;62.00
20068;DHT22;10194;50.824;7.134;2023-06-10T11:05:18;29.90;57.70
20068;DHT22;10194;50.824;7.134;2023-06-10T11:08:01;29.70;60.00
20068;DHT22;10194;50.824;7.134;2023-06-10T11:10:40;28.70;58.90
20068;DHT22;10194;50.824;7.134;2023-06-10T11:13:18;28.50;59.80
20068;DHT22;10194;50.824;7.134;2023-06-10T11:15:46;28.70;59.50
20068;DHT22;10194;50.824;7.134;2023-06-10T11:23:30;29.30;58.20
20068;DHT22;10194;50.824;7.134;2023-06-10T11:31:23;29.40;56.80
20068;DHT22;10194;50.824;7.134;2023-06-10T11:33:57;28.90;57.10
20068;DHT22;10194;50.824;7.134;2023-06-10T11:36:28;28.40;58.10
20068;DHT22;10194;50.824;7.134;2023-06-10T11:39:02;28.30;59.40
20068;DHT22;10194;50.824;7.134;2023-06-10T11:41:30;28.50;57.70
20068;DHT22;10194;50.824;7.134;2023-06-10T11:44:02;29.00;57.60
20068;DHT22;10194;50.824;7.134;2023-06-10T11:46:28;29.30;56.00
20068;DHT22;10194;50.824;7.134;2023-06-10T11:48:56;29.60;56.40
20068;DHT22;10194;50.824;7.134;2023-06-10T11:51:27;30.00;57.10
20068;DHT22;10194;50.824;7.134;2023-06-10T11:53:54;30.00;55.60
20068;DHT22;10194;50.824;7.134;2023-06-10T11:56:21;30.00;55.30
20068;DHT22;10194;50.824;7.134;2023-06-10T11:58:55;30.20;55.40
20068;DHT22;10194;50.824;7.134;2023-06-10T12:01:27;30.30;53.80
20068;DHT22;10194;50.824;7.134;2023-06-10T12:04:06;30.40;53.80
20068;DHT22;10194;50.824;7.134;2023-06-10T12:06:47;30.00;51.60
20068;DHT22;10194;50.824;7.134;2023-06-10T12:09:21;30.10;53.90
20068;DHT22;10194;50.824;7.134;2023-06-10T12:15:22;30.50;53.90
20068;DHT22;10194;50.824;7.134;2023-06-10T12:17:37;30.00;52.80
20068;DHT22;10194;50.824;7.134;2023-06-10T12:20:05;29.90;53.60
20068;DHT22;10194;50.824;7.134;2023-06-10T12:22:40;29.80;52.50
20068;DHT22;10194;50.824;7.134;2023-06-10T12:25:08;29.60;53.30
20068;DHT22;10194;50.824;7.134;2023-06-10T12:27:35;29.70;53.60
20068;DHT22;10194;50.824;7.134;2023-06-10T12:30:04;29.60;54.00
20068;DHT22;10194;50.824;7.134;2023-06-10T12:32:43;29.20;55.00
20068;DHT22;10194;50.824;7.134;2023-06-10T12:35:16;28.90;53.90
20068;DHT22;10194;50.824;7.134;2023-06-10T12:37:58;28.80;54.40
20068;DHT22;10194;50.824;7.134;2023-06-10T12:40:39;28.80;53.30
20068;DHT22;10194;50.824;7.134;2023-06-10T12:43:06;29.00;53.50
20068;DHT22;10194;50.824;7.134;2023-06-10T12:45:36;29.10;56.20
20068;DHT22;10194;50.824;7.134;2023-06-10T12:50:39;29.20;55.40
20068;DHT22;10194;50.824;7.134;2023-06-10T12:53:06;29.40;53.60
20068;DHT22;10194;50.824;7.134;2023-06-10T12:55:33;29.30;52.30
20068;DHT22;10194;50.824;7.134;2023-06-10T12:57:59;29.20;51.50
20068;DHT22;10194;50.824;7.134;2023-06-10T13:00:27;29.20;52.20
20068;DHT22;10194;50.824;7.134;2023-06-10T13:02:56;29.30;53.20
20068;DHT22;10194;50.824;7.134;2023-06-10T13:05:23;29.20;52.70
20068;DHT22;10194;50.824;7.134;2023-06-10T13:07:48;29.20;51.50
20068;DHT22;10194;50.824;7.134;2023-06-10T13:10:15;29.40;51.70
20068;DHT22;10194;50.824;7.134;2023-06-10T13:12:42;29.30;51.40
20068;DHT22;10194;50.824;7.134;2023-06-10T13:15:09;29.20;51.90
20068;DHT22;10194;50.824;7.134;2023-06-10T13:17:35;29.20;51.10
20068;DHT22;10194;50.824;7.134;2023-06-10T13:20:04;29.30;51.60
20068;DHT22;10194;50.824;7.134;2023-06-10T13:22:32;29.80;52.40
20068;DHT22;10194;50.824;7.134;2023-06-10T13:25:00;30.00;51.20
20068;DHT22;10194;50.824;7.134;2023-06-10T13:27:26;30.00;50.90
20068;DHT22;10194;50.824;7.134;2023-06-10T13:29:52;30.10;51.70
20068;DHT22;10194;50.824;7.134;2023-06-10T13:32:18;30.30;50.80
20068;DHT22;10194;50.824;7.134;2023-06-10T13:34:44;30.10;50.90
20068;DHT22;10194;50.824;7.134;2023-06-10T13:37:10;30.30;52.30
20068;DHT22;10194;50.824;7.134;2023-06-10T13:39:38;30.50;51.30
20068;DHT22;10194;50.824;7.134;2023-06-10T13:42:05;30.50;51.20
20068;DHT22;10194;50.824;7.134;2023-06-10T13:44:33;30.40;50.00
20068;DHT22;10194;50.824;7.134;2023-06-10T13:47:02;30.30;49.70
20068;DHT22;10194;50.824;7.134;2023-06-10T13:49:28;30.50;49.80
20068;DHT22;10194;50.824;7.134;2023-06-10T13:51:54;30.30;50.50
20068;DHT22;10194;50.824;7.134;2023-06-10T13:54:20;30.00;51.40
20068;DHT22;10194;50.824;7.134;2023-06-10T13:56:46;29.90;52.70
20068;DHT22;10194;50.824;7.134;2023-06-10T13:59:12;29.60;52.90
20068;DHT22;10194;50.824;7.134;2023-06-10T14:01:38;29.40;53.00
20068;DHT22;10194;50.824;7.134;2023-06-10T14:04:06;29.30;54.10
20068;DHT22;10194;50.824;7.134;2023-06-10T14:06:32;29.20;53.70
20068;DHT22;10194;50.824;7.134;2023-06-10T14:08:59;29.20;54.50
20068;DHT22;10194;50.824;7.134;2023-06-10T14:11:25;29.40;54.20
20068;DHT22;10194;50.824;7.134;2023-06-10T14:13:51;29.40;53.60
20068;DHT22;10194;50.824;7.134;2023-06-10T14:16:17;29.40;54.20
20068;DHT22;10194;50.824;7.134;2023-06-10T14:18:43;29.60;54.50
20068;DHT22;10194;50.824;7.134;2023-06-10T14:21:09;29.30;54.00
20068;DHT22;10194;50.824;7.134;2023-06-10T14:23:34;29.10;54.80
20068;DHT22;10194;50.824;7.134;2023-06-10T14:26:01;28.90;56.30
20068;DHT22;10194;50.824;7.134;2023-06-10T14:28:28;28.60;55.60
20068;DHT22;10194;50.824;7.134;2023-06-10T14:30:54;28.50;56.60
20068;DHT22;10194;50.824;7.134;2023-06-10T14:33:20;28.30;56.70
20068;DHT22;10194;50.824;7.134;2023-06-10T14:35:46;28.40;56.70
20068;DHT22;10194;50.824;7.134;2023-06-10T14:38:12;28.70;55.80
20068;DHT22;10194;50.824;7.134;2023-06-10T14:40:37;28.90;55.60
20068;DHT22;10194;50.824;7.134;2023-06-10T14:43:03;28.90;55.80
20068;DHT22;10194;50.824;7.134;2023-06-10T14:45:38;29.10;53.40
20068;DHT22;10194;50.824;7.134;2023-06-10T14:48:06;29.10;51.80
20068;DHT22;10194;50.824;7.134;2023-06-10T14:50:36;29.10;52.20
20068;DHT22;10194;50.824;7.134;2023-06-10T14:53:02;29.10;52.10
20068;DHT22;10194;50.824;7.134;2023-06-10T14:55:28;29.30;52.30
20068;DHT22;10194;50.824;7.134;2023-06-10T14:57:54;29.30;52.30
20068;DHT22;10194;50.824;7.134;2023-06-10T15:00:21;29.30;51.30
20068;DHT22;10194;50.824;7.134;2023-06-10T15:02:49;29.30;51.10
20068;DHT22;10194;50.824;7.134;2023-06-10T15:05:16;29.00;51.00
20068;DHT22;10194;50.824;7.134;2023-06-10T15:07:43;29.20;51.30
20068;DHT22;10194;50.824;7.134;2023-06-10T15:10:09;29.20;52.80
20068;DHT22;10194;50.824;7.134;2023-06-10T15:12:35;29.50;52.30
20068;DHT22;10194;50.824;7.134;2023-06-10T15:15:02;29.60;52.10
20068;DHT22;10194;50.824;7.134;2023-06-10T15:17:28;29.50;51.80
20068;DHT22;10194;50.824;7.134;2023-06-10T15:19:54;29.30;50.60
20068;DHT22;10194;50.824;7.134;2023-06-10T15:22:20;29.20;51.70
20068;DHT22;10194;50.824;7.134;2023-06-10T15:24:46;29.40;50.50
20068;DHT22;10194;50.824;7.134;2023-06-10T15:27:12;29.40;50.60
20068;DHT22;10194;50.824;7.134;2023-06-10T15:29:38;29.40;50.40
20068;DHT22;10194;50.824;7.134;2023-06-10T15:32:04;29.50;49.70
20068;DHT22;10194;50.824;7.134;2023-06-10T15:34:30;29.50;49.40
20068;DHT22;10194;50.824;7.134;2023-06-10T15:36:56;29.50;50.50
20068;DHT22;10194;50.824;7.134;2023-06-10T15:39:21;29.60;50.00
20068;DHT22;10194;50.824;7.134;2023-06-10T15:41:49;29.40;50.40
20068;DHT22;10194;50.824;7.134;2023-06-10T15:44:15;29.50;51.20
20068;DHT22;10194;50.824;7.134;2023-06-10T15:46:41;29.50;50.90
20068;DHT22;10194;50.824;7.134;2023-06-10T15:49:07;29.50;51.20
20068;DHT22;10194;50.824;7.134;2023-06-10T15:51:33;29.50;51.20
20068;DHT22;10194;50.824;7.134;2023-06-10T15:53:59;29.30;50.20
20068;DHT22;10194;50.824;7.134;2023-06-10T15:56:24;29.30;48.90